createdAt,value
2016-02-24T00:00:04.251Z,1.13
2016-02-24T00:00:16.658Z,1.14
2016-02-24T00:02:08.178Z,1.14
2016-02-24T00:02:20.678Z,1.16
2016-02-24T00:04:12.106Z,1.3
2016-02-24T00:04:37.419Z,1.21
2016-02-24T00:06:21.658Z,1.16
2016-02-24T00:06:53.439Z,1.14
2016-02-24T00:09:31.041Z,1.2
2016-02-24T00:10:08.810Z,1.27
2016-02-24T00:12:24.018Z,1.22
2016-02-24T00:13:24.035Z,1.25
2016-02-24T00:15:26.651Z,1.21
2016-02-24T00:16:04.934Z,1.28
2016-02-24T00:16:39.262Z,1.28
2016-02-24T00:18:41.893Z,1.3
2016-02-24T00:19:20.223Z,1.28
2016-02-24T00:20:20.259Z,1.3
2016-02-24T00:21:29.886Z,1.25
2016-02-24T00:22:13.764Z,1.28
2016-02-24T00:23:39.469Z,1.28
2016-02-24T00:25:20.334Z,1.36
2016-02-24T00:26:04.212Z,1.28
2016-02-24T00:29:16.986Z,1.3
2016-02-24T00:29:45.720Z,1.22
2016-02-24T00:30:45.723Z,1.2
2016-02-24T00:31:45.725Z,1.25
2016-02-24T00:32:58.481Z,1.24
2016-02-24T00:33:45.856Z,1.22
2016-02-24T00:35:11.438Z,1.16
2016-02-24T00:35:52.740Z,1.24
2016-02-24T00:37:46.699Z,1.24
2016-02-24T00:38:56.251Z,1.21
2016-02-24T00:39:27.392Z,1.24
2016-02-24T00:40:36.957Z,1.18
2016-02-24T00:41:20.851Z,1.2
2016-02-24T00:44:32.984Z,1.24
2016-02-24T00:45:01.940Z,1.2
2016-02-24T00:46:01.708Z,1.18
2016-02-24T00:47:07.992Z,1.12
2016-02-24T00:48:01.745Z,1.2
2016-02-24T00:49:20.951Z,1.14
2016-02-24T00:50:14.500Z,1.13
2016-02-24T00:52:04.395Z,1.04
2016-02-24T00:52:42.427Z,1.1
2016-02-24T00:54:51.354Z,1.03
2016-02-24T00:55:51.373Z,0.95
2016-02-24T00:57:04.128Z,0.95
2016-02-24T00:57:51.409Z,0.95
2016-02-24T00:59:48.400Z,1
2016-02-24T01:00:57.951Z,0.89
2016-02-24T01:01:29.701Z,0.91
2016-02-24T01:02:39.376Z,0.99
2016-02-24T01:03:48.925Z,0.96
2016-02-24T01:04:32.803Z,0.96
2016-02-24T01:05:52.041Z,0.92
2016-02-24T01:07:54.941Z,1.04
2016-02-24T01:09:04.618Z,0.89
2016-02-24T01:09:48.524Z,1.02
2016-02-24T01:12:23.751Z,0.92
2016-02-24T01:14:21.365Z,0.94
2016-02-24T01:14:33.944Z,0.88
2016-02-24T01:16:25.309Z,0.89
2016-02-24T01:16:40.934Z,0.85
2016-02-24T01:18:03.580Z,0.91
2016-02-24T01:19:13.176Z,0.92
2016-02-24T01:19:47.520Z,0.86
2016-02-24T01:22:02.716Z,0.92
2016-02-24T01:23:02.734Z,0.95
2016-02-24T01:24:08.987Z,0.89
2016-02-24T01:25:15.489Z,0.92
2016-02-24T01:26:15.289Z,0.92
2016-02-24T01:27:28.447Z,0.89
2016-02-24T01:28:32.373Z,0.85
2016-02-24T01:30:47.722Z,0.91
2016-02-24T01:31:47.771Z,0.89
2016-02-24T01:32:47.805Z,0.89
2016-02-24T01:33:47.746Z,0.89
2016-02-24T01:34:48.358Z,0.95
2016-02-24T01:36:00.535Z,0.89
2016-02-24T01:37:00.740Z,0.89
2016-02-24T01:38:13.478Z,0.85
2016-02-24T01:39:07.043Z,0.84
2016-02-24T01:40:19.155Z,0.96
2016-02-24T01:41:22.267Z,0.85
2016-02-24T01:42:28.723Z,0.94
2016-02-24T01:43:28.740Z,0.92
2016-02-24T01:45:09.606Z,0.91
2016-02-24T01:45:38.309Z,0.84
2016-02-24T01:46:38.326Z,0.89
2016-02-24T01:47:38.361Z,0.84
2016-02-24T01:48:38.348Z,0.94
2016-02-24T01:49:51.101Z,0.82
2016-02-24T01:50:51.087Z,0.76
2016-02-24T01:51:57.593Z,0.77
2016-02-24T01:52:38.406Z,0.81
2016-02-24T01:54:53.615Z,0.77
2016-02-24T01:56:12.838Z,0.82
2016-02-24T01:57:02.998Z,0.76
2016-02-24T01:58:53.719Z,0.78
2016-02-24T01:59:19.019Z,0.81
2016-02-24T02:00:19.022Z,0.76
2016-02-24T02:01:31.774Z,0.77
2016-02-24T02:02:31.824Z,0.76
2016-02-24T02:03:38.279Z,0.74
2016-02-24T02:04:38.282Z,0.67
2016-02-24T02:05:47.831Z,0.7
2016-02-24T02:06:22.255Z,0.64
2016-02-24T02:07:22.180Z,0.68
2016-02-24T02:08:41.386Z,0.56
2016-02-24T02:09:47.327Z,0.59
2016-02-24T02:10:26.720Z,0.64
2016-02-24T02:12:41.944Z,0.59
2016-02-24T02:13:41.932Z,0.58
2016-02-24T02:14:54.684Z,0.48
2016-02-24T02:15:42.154Z,0.45
2016-02-24T02:16:41.971Z,0.55
2016-02-24T02:17:48.239Z,0.52
2016-02-24T02:18:48.257Z,0.42
2016-02-24T02:19:41.995Z,0.47
2016-02-24T02:20:54.747Z,0.37
2016-02-24T02:21:48.281Z,0.37
2016-02-24T02:23:39.036Z,0.33
2016-02-24T02:24:18.836Z,0.31
2016-02-24T02:25:05.916Z,0.3
2016-02-24T02:26:25.904Z,0.34
2016-02-24T02:27:12.828Z,0.44
2016-02-24T02:28:28.987Z,0.34
2016-02-24T02:29:16.068Z,0.37
2016-02-24T02:30:09.821Z,0.31
2016-02-24T02:31:22.573Z,0.18
2016-02-24T02:32:09.842Z,0.37
2016-02-24T02:33:29.142Z,0.39
2016-02-24T02:34:22.581Z,0.24
2016-02-24T02:35:41.178Z,0.26
2016-02-24T02:36:29.149Z,0.31
2016-02-24T02:37:09.730Z,0.27
2016-02-24T02:38:29.123Z,0.29
2016-02-24T02:39:13.016Z,0.2
2016-02-24T02:40:32.222Z,0.26
2016-02-24T02:41:16.272Z,0.3
2016-02-24T02:42:38.540Z,0.26
2016-02-24T02:43:51.496Z,0.31
2016-02-24T02:45:01.048Z,0.26
2016-02-24T02:46:01.035Z,0.33
2016-02-24T02:47:10.585Z,0.37
2016-02-24T02:48:10.698Z,0.36
2016-02-24T02:48:39.323Z,0.42
2016-02-24T02:50:39.343Z,0.37
2016-02-24T02:51:39.361Z,0.27
2016-02-24T02:52:39.365Z,0.34
2016-02-24T02:53:39.367Z,0.39
2016-02-24T02:54:45.650Z,0.2
2016-02-24T02:55:47.076Z,0.4
2016-02-24T02:56:52.125Z,0.36
2016-02-24T02:58:05.100Z,0.39
2016-02-24T02:58:58.445Z,0.44
2016-02-24T02:59:39.461Z,0.42
2016-02-24T03:01:05.122Z,0.45
2016-02-24T03:01:39.482Z,0.47
2016-02-24T03:03:10.863Z,0.55
2016-02-24T03:03:49.081Z,0.47
2016-02-24T03:04:49.083Z,0.51
2016-02-24T03:06:01.839Z,0.44
2016-02-24T03:06:55.417Z,0.56
2016-02-24T03:08:08.361Z,0.47
2016-02-24T03:09:01.879Z,0.58
2016-02-24T03:10:14.866Z,0.71
2016-02-24T03:10:49.210Z,0.73
2016-02-24T03:12:20.496Z,0.92
2016-02-24T03:12:58.686Z,0.86
2016-02-24T03:14:24.393Z,0.91
2016-02-24T03:15:05.598Z,0.99
2016-02-24T03:16:30.649Z,1.02
2016-02-24T03:17:14.667Z,0.95
2016-02-24T03:18:14.701Z,0.78
2016-02-24T03:19:14.688Z,0.78
2016-02-24T03:20:16.112Z,0.78
2016-02-24T03:21:15.334Z,0.81
2016-02-24T03:22:33.930Z,0.68
2016-02-24T03:23:27.527Z,0.64
2016-02-24T03:24:40.435Z,0.56
2016-02-24T03:25:33.969Z,0.56
2016-02-24T03:26:43.612Z,0.52
2016-02-24T03:27:17.929Z,0.47
2016-02-24T03:29:31.137Z,0.44
2016-02-24T03:30:31.201Z,0.49
2016-02-24T03:31:43.892Z,0.37
2016-02-24T03:32:31.379Z,0.36
2016-02-24T03:33:31.194Z,0.39
2016-02-24T03:34:37.493Z,0.27
2016-02-24T03:35:31.200Z,0.36
2016-02-24T03:36:31.233Z,0.29
2016-02-24T03:37:31.251Z,0.3
2016-02-24T03:38:31.442Z,0.37
2016-02-24T03:39:44.023Z,0.37
2016-02-24T03:40:37.523Z,0.42
2016-02-24T03:41:50.452Z,0.39
2016-02-24T03:42:31.254Z,0.39
2016-02-24T03:44:02.579Z,0.36
2016-02-24T03:44:46.454Z,0.29
2016-02-24T03:45:46.476Z,0.34
2016-02-24T03:46:46.460Z,0.33
2016-02-24T03:47:46.490Z,0.42
2016-02-24T03:48:52.738Z,0.36
2016-02-24T03:49:54.205Z,0.34
2016-02-24T03:51:05.704Z,0.47
2016-02-24T03:51:49.564Z,0.33
2016-02-24T03:53:12.425Z,0.33
2016-02-24T03:53:56.300Z,0.44
2016-02-24T03:54:56.302Z,0.34
2016-02-24T03:55:56.288Z,0.45
2016-02-24T03:56:56.305Z,0.4
2016-02-24T03:57:56.339Z,0.39
2016-02-24T03:59:02.624Z,0.37
2016-02-24T03:59:56.342Z,0.3
2016-02-24T04:00:56.344Z,0.24
2016-02-24T04:01:56.472Z,0.16
2016-02-24T04:02:56.365Z,0.23
2016-02-24T04:03:56.493Z,0.16
2016-02-24T04:04:56.391Z,0.2
2016-02-24T04:05:57.848Z,0.13
2016-02-24T04:06:56.428Z,0.12
2016-02-24T04:07:56.446Z,0.13
2016-02-24T04:08:57.871Z,0.18
2016-02-24T04:09:56.530Z,0.19
2016-02-24T04:11:09.192Z,0.16
2016-02-24T04:12:09.225Z,0.29
2016-02-24T04:13:22.181Z,0.36
2016-02-24T04:13:56.509Z,0.36
2016-02-24T04:16:31.502Z,0.44
2016-02-24T04:18:46.741Z,0.52
2016-02-24T04:19:46.728Z,0.58
2016-02-24T04:20:46.746Z,0.51
2016-02-24T04:21:46.766Z,0.56
2016-02-24T04:22:46.783Z,0.58
2016-02-24T04:23:46.786Z,0.47
2016-02-24T04:24:46.883Z,0.55
2016-02-24T04:25:59.544Z,0.51
2016-02-24T04:26:46.857Z,0.56
2016-02-24T04:28:12.519Z,0.48
2016-02-24T04:28:47.441Z,0.47
2016-02-24T04:30:18.148Z,0.59
2016-02-24T04:31:02.043Z,0.45
2016-02-24T04:32:02.029Z,0.44
2016-02-24T04:33:02.829Z,0.47
2016-02-24T04:34:02.066Z,0.37
2016-02-24T04:35:21.271Z,0.26
2016-02-24T04:36:09.648Z,0.26
2016-02-24T04:38:03.561Z,0.27
2016-02-24T04:38:16.248Z,0.3
2016-02-24T04:39:28.939Z,0.19
2016-02-24T04:40:22.503Z,0.24
2016-02-24T04:41:35.475Z,0.2
2016-02-24T04:42:35.478Z,0.15
2016-02-24T04:43:47.590Z,0.24
2016-02-24T04:44:35.562Z,0.3
2016-02-24T04:45:16.314Z,0.24
2016-02-24T04:47:16.429Z,0.36
2016-02-24T04:48:25.963Z,0.2
2016-02-24T04:48:57.744Z,0.31
2016-02-24T04:49:41.653Z,0.26
2016-02-24T04:51:38.627Z,0.24
2016-02-24T04:52:22.505Z,0.29
2016-02-24T04:55:00.954Z,0.24
2016-02-24T04:57:01.053Z,0.27
2016-02-24T04:58:10.603Z,0.11
2016-02-24T04:58:54.494Z,0.2
2016-02-24T05:00:20.280Z,0.09
2016-02-24T05:00:54.499Z,0.09
2016-02-24T05:02:25.817Z,0.11
2016-02-24T05:02:57.661Z,0.11
2016-02-24T05:03:57.679Z,0.06
2016-02-24T05:05:12.872Z,0.06
2016-02-24T05:06:12.858Z,0
2016-02-24T05:07:12.877Z,0.02
2016-02-24T05:08:12.896Z,0.05
2016-02-24T05:09:12.929Z,0
2016-02-24T05:10:12.979Z,0
2016-02-24T05:11:12.919Z,0.06
2016-02-24T05:12:25.688Z,0.05
2016-02-24T05:13:13.549Z,-0.06
2016-02-24T05:14:32.193Z,-0.03
2016-02-24T05:15:12.977Z,0.05
2016-02-24T05:16:12.996Z,0.05
2016-02-24T05:17:13.076Z,0.01
2016-02-24T05:18:25.798Z,0.01
2016-02-24T05:19:13.097Z,-0.13
2016-02-24T05:20:32.240Z,-0.09
2016-02-24T05:21:41.742Z,-0.1
2016-02-24T05:22:28.965Z,-0.17
2016-02-24T05:23:54.592Z,-0.06
2016-02-24T05:25:00.254Z,-0.21
2016-02-24T05:26:00.272Z,-0.07
2016-02-24T05:26:29.053Z,-0.09
2016-02-24T05:27:28.994Z,-0.17
2016-02-24T05:28:29.090Z,-0.17
2016-02-24T05:29:29.014Z,-0.18
2016-02-24T05:30:29.064Z,-0.17
2016-02-24T05:31:41.800Z,-0.21
2016-02-24T05:32:41.772Z,-0.17
2016-02-24T05:33:54.713Z,-0.17
2016-02-24T05:36:41.924Z,-0.1
2016-02-24T05:37:42.160Z,-0.1
2016-02-24T05:38:54.695Z,-0.18
2016-02-24T05:39:54.791Z,-0.09
2016-02-24T05:41:07.609Z,-0.2
2016-02-24T05:43:54.818Z,-0.17
2016-02-24T05:44:54.960Z,-0.2
2016-02-24T05:46:26.138Z,-0.15
2016-02-24T05:47:07.453Z,-0.21
2016-02-24T05:49:45.084Z,-0.18
2016-02-24T05:52:25.998Z,-0.1
2016-02-24T05:53:00.342Z,-0.09
2016-02-24T05:55:15.507Z,-0.07
2016-02-24T05:56:15.540Z,-0.12
2016-02-24T05:57:15.715Z,-0.09
2016-02-24T05:58:21.811Z,-0.12
2016-02-24T05:59:21.814Z,-0.07
2016-02-24T06:00:28.332Z,-0.07
2016-02-24T06:01:15.600Z,-0.07
2016-02-24T06:02:34.790Z,-0.02
2016-02-24T06:03:15.809Z,0
2016-02-24T06:04:41.280Z,0.02
2016-02-24T06:05:19.502Z,-0.09
2016-02-24T06:07:22.147Z,-0.03
2016-02-24T06:08:00.382Z,0.01
2016-02-24T06:08:34.776Z,-0.09
2016-02-24T06:10:32.313Z,-0.02
2016-02-24T06:10:44.906Z,-0.09
2016-02-24T06:12:47.522Z,0.08
2016-02-24T06:13:19.947Z,0.09
2016-02-24T06:14:00.743Z,0.08
2016-02-24T06:16:03.376Z,0.13
2016-02-24T06:16:35.783Z,0.05
2016-02-24T06:17:16.566Z,0.09
2016-02-24T06:19:13.556Z,-0.03
2016-02-24T06:19:26.728Z,-0.02
2016-02-24T06:20:39.825Z,0.05
2016-02-24T06:21:26.749Z,-0.03
2016-02-24T06:22:52.455Z,0.06
2016-02-24T06:23:26.770Z,0.06
2016-02-24T06:24:58.101Z,0.05
2016-02-24T06:25:29.900Z,0.06
2016-02-24T06:27:29.921Z,0.09
2016-02-24T06:28:29.907Z,0.05
2016-02-24T06:29:42.535Z,0.01
2016-02-24T06:31:10.838Z,0.09
2016-02-24T06:31:55.354Z,0.06
2016-02-24T06:33:14.812Z,0.01
2016-02-24T06:34:24.378Z,0.06
2016-02-24T06:34:58.737Z,0.06
2016-02-24T06:35:58.723Z,0.02
2016-02-24T06:36:58.977Z,0.06
2016-02-24T06:37:58.761Z,0.16
2016-02-24T06:38:58.779Z,0.18
2016-02-24T06:40:00.219Z,0.23
2016-02-24T06:41:05.068Z,0.29
2016-02-24T06:41:58.787Z,0.31
2016-02-24T06:43:11.590Z,0.36
2016-02-24T06:44:11.607Z,0.47
2016-02-24T06:44:58.695Z,0.44
2016-02-24T06:45:58.853Z,0.45
2016-02-24T06:47:01.523Z,0.44
2016-02-24T06:47:58.920Z,0.37
2016-02-24T06:48:58.891Z,0.47
2016-02-24T06:50:11.507Z,0.48
2016-02-24T06:50:58.913Z,0.51
2016-02-24T06:51:58.947Z,0.56
2016-02-24T06:52:58.949Z,0.47
2016-02-24T06:53:58.983Z,0.51
2016-02-24T06:54:58.971Z,0.44
2016-02-24T06:55:58.974Z,0.4
2016-02-24T06:56:58.960Z,0.42
2016-02-24T06:57:58.993Z,0.52
2016-02-24T06:58:58.997Z,0.59
2016-02-24T06:59:59.015Z,0.52
2016-02-24T07:00:59.034Z,0.56
2016-02-24T07:01:59.037Z,0.66
2016-02-24T07:02:59.040Z,0.66
2016-02-24T07:03:59.260Z,0.73
2016-02-24T07:04:59.059Z,0.68
2016-02-24T07:05:59.251Z,0.77
2016-02-24T07:06:59.378Z,0.78
2016-02-24T07:07:59.239Z,0.86
2016-02-24T07:08:59.587Z,1
2016-02-24T07:09:59.266Z,1.16
2016-02-24T07:10:59.424Z,1.45
2016-02-24T07:11:59.272Z,1.92
2016-02-24T07:13:00.039Z,2.22
2016-02-24T07:13:59.214Z,2.61
2016-02-24T07:14:59.435Z,2.83
2016-02-24T07:15:59.250Z,2.97
2016-02-24T07:16:59.394Z,3.19
2016-02-24T07:17:59.490Z,3.41
2016-02-24T07:18:59.353Z,3.55
2016-02-24T07:19:59.261Z,3.74
2016-02-24T07:20:59.341Z,3.89
2016-02-24T07:21:59.282Z,4.03
2016-02-24T07:22:59.285Z,4.16
2016-02-24T07:24:01.022Z,4.3
2016-02-24T07:25:01.712Z,4.31
2016-02-24T07:25:59.355Z,4.31
2016-02-24T07:27:18.704Z,4.25
2016-02-24T07:27:59.970Z,4.31
2016-02-24T07:28:59.380Z,4.13
2016-02-24T07:29:59.491Z,3.94
2016-02-24T07:30:59.416Z,3.78
2016-02-24T07:31:59.465Z,3.59
2016-02-24T07:32:59.421Z,3.15
2016-02-24T07:34:12.223Z,2.85
2016-02-24T07:34:59.442Z,2.65
2016-02-24T07:37:34.700Z,2.19
2016-02-24T07:38:09.047Z,2.12
2016-02-24T07:39:09.080Z,1.98
2016-02-24T07:40:09.099Z,1.95
2016-02-24T07:41:09.086Z,1.82
2016-02-24T07:42:09.104Z,1.89
2016-02-24T07:43:10.544Z,1.93
2016-02-24T07:44:09.125Z,1.93
2016-02-24T07:45:09.159Z,1.97
2016-02-24T07:46:09.802Z,1.89
2016-02-24T07:47:09.321Z,1.89
2016-02-24T07:48:09.167Z,1.93
2016-02-24T07:49:09.202Z,2.03
2016-02-24T07:50:09.297Z,1.95
2016-02-24T07:51:09.285Z,1.88
2016-02-24T07:52:09.335Z,1.98
2016-02-24T07:53:09.431Z,1.98
2016-02-24T07:54:09.527Z,2.07
2016-02-24T07:55:09.515Z,1.98
2016-02-24T07:56:09.346Z,2.1
2016-02-24T07:57:09.348Z,2.04
2016-02-24T07:58:09.304Z,2.12
2016-02-24T07:59:09.338Z,2.21
2016-02-24T08:00:09.340Z,2.22
2016-02-24T08:01:09.359Z,2.25
2016-02-24T08:02:09.423Z,2.18
2016-02-24T08:03:09.380Z,2.22
2016-02-24T08:04:09.398Z,2.28
2016-02-24T08:05:22.291Z,2.3
2016-02-24T08:06:09.576Z,2.33
2016-02-24T08:08:06.659Z,2.36
2016-02-24T08:08:44.893Z,2.43
2016-02-24T08:09:19.223Z,2.44
2016-02-24T08:10:19.414Z,2.5
2016-02-24T08:11:19.417Z,2.41
2016-02-24T08:12:19.389Z,2.5
2016-02-24T08:13:19.391Z,2.54
2016-02-24T08:14:19.394Z,2.62
2016-02-24T08:15:19.661Z,2.65
2016-02-24T08:16:19.383Z,2.62
2016-02-24T08:17:19.557Z,2.73
2016-02-24T08:18:19.372Z,2.72
2016-02-24T08:19:19.579Z,2.62
2016-02-24T08:20:19.441Z,2.75
2016-02-24T08:21:32.146Z,2.7
2016-02-24T08:22:19.415Z,2.73
2016-02-24T08:23:19.636Z,2.75
2016-02-24T08:24:19.436Z,2.77
2016-02-24T08:25:19.516Z,2.77
2016-02-24T08:26:19.473Z,2.65
2016-02-24T08:27:19.522Z,2.76
2016-02-24T08:28:19.509Z,2.82
2016-02-24T08:29:19.560Z,2.82
2016-02-24T08:30:19.515Z,2.75
2016-02-24T08:31:19.517Z,2.82
2016-02-24T08:32:20.160Z,2.85
2016-02-24T08:33:19.554Z,2.82
2016-02-24T08:34:19.635Z,2.82
2016-02-24T08:35:20.200Z,2.87
2016-02-24T08:36:19.703Z,2.94
2016-02-24T08:37:19.628Z,2.93
2016-02-24T08:38:19.630Z,2.97
2016-02-24T08:39:19.648Z,2.97
2016-02-24T08:40:19.745Z,2.97
2016-02-24T08:41:19.669Z,3.03
2016-02-24T08:42:19.687Z,2.98
2016-02-24T08:43:19.690Z,3.05
2016-02-24T08:44:19.692Z,3.11
2016-02-24T08:45:19.758Z,3.15
2016-02-24T08:46:19.761Z,3.12
2016-02-24T08:47:26.030Z,3.13
2016-02-24T08:48:19.782Z,3.21
2016-02-24T08:49:19.910Z,3.16
2016-02-24T08:50:19.788Z,3.22
2016-02-24T08:51:19.821Z,3.13
2016-02-24T08:52:19.855Z,3.22
2016-02-24T08:53:19.842Z,3.24
2016-02-24T08:54:26.141Z,3.45
2016-02-24T08:55:19.879Z,3.43
2016-02-24T08:56:19.897Z,3.36
2016-02-24T08:57:19.900Z,3.46
2016-02-24T08:58:19.934Z,3.46
2016-02-24T08:59:19.921Z,3.52
2016-02-24T09:00:19.940Z,3.5
2016-02-24T09:01:19.957Z,3.52
2016-02-24T09:02:19.991Z,3.53
2016-02-24T09:03:19.994Z,3.61
2016-02-24T09:04:19.996Z,3.61
2016-02-24T09:05:19.999Z,3.64
2016-02-24T09:06:20.065Z,3.64
2016-02-24T09:07:20.051Z,3.61
2016-02-24T09:08:20.086Z,3.61
2016-02-24T09:09:20.073Z,3.61
2016-02-24T09:10:32.170Z,3.63
2016-02-24T09:11:20.094Z,3.63
2016-02-24T09:12:20.143Z,3.66
2016-02-24T09:13:20.146Z,3.66
2016-02-24T09:14:20.148Z,3.64
2016-02-24T09:15:20.244Z,3.68
2016-02-24T09:16:20.186Z,3.74
2016-02-24T09:17:33.031Z,3.84
2016-02-24T09:18:20.206Z,3.77
2016-02-24T09:19:39.506Z,3.92
2016-02-24T09:20:26.493Z,3.91
2016-02-24T09:21:20.261Z,3.99
2016-02-24T09:22:20.280Z,3.99
2016-02-24T09:23:26.641Z,4.02
2016-02-24T09:24:20.238Z,4.18
2016-02-24T09:25:33.021Z,4.21
2016-02-24T09:26:20.369Z,4.13
2016-02-24T09:27:20.324Z,4.13
2016-02-24T09:28:20.343Z,4.21
2016-02-24T09:29:20.361Z,4.25
2016-02-24T09:30:20.488Z,4.24
2016-02-24T09:31:20.398Z,4.28
2016-02-24T09:32:20.432Z,4.28
2016-02-24T09:33:20.418Z,4.28
2016-02-24T09:34:20.514Z,4.39
2016-02-24T09:35:20.439Z,4.38
2016-02-24T09:36:20.473Z,4.48
2016-02-24T09:37:20.476Z,4.45
2016-02-24T09:38:20.495Z,4.36
2016-02-24T09:39:20.497Z,4.39
2016-02-24T09:40:20.515Z,4.36
2016-02-24T09:41:20.564Z,4.36
2016-02-24T09:42:20.787Z,4.39
2016-02-24T09:43:33.351Z,4.4
2016-02-24T09:44:20.572Z,4.34
2016-02-24T09:45:33.342Z,4.42
2016-02-24T09:46:20.625Z,4.42
2016-02-24T09:47:20.691Z,4.42
2016-02-24T09:48:20.647Z,4.39
2016-02-24T09:49:20.727Z,4.45
2016-02-24T09:50:20.667Z,4.48
2016-02-24T09:51:20.702Z,4.46
2016-02-24T09:52:21.313Z,4.49
2016-02-24T09:53:33.441Z,4.42
2016-02-24T09:54:20.756Z,4.46
2016-02-24T09:55:20.775Z,4.52
2016-02-24T09:56:20.761Z,4.49
2016-02-24T09:57:20.780Z,4.53
2016-02-24T09:58:20.799Z,4.6
2016-02-24T09:59:20.785Z,4.61
2016-02-24T10:00:20.835Z,4.67
2016-02-24T10:01:33.587Z,4.68
2016-02-24T10:02:20.918Z,4.75
2016-02-24T10:03:46.545Z,4.7
2016-02-24T10:04:20.940Z,4.78
2016-02-24T10:05:20.895Z,4.78
2016-02-24T10:06:20.929Z,4.89
2016-02-24T10:07:20.932Z,5.02
2016-02-24T10:08:20.934Z,5.19
2016-02-24T10:09:20.953Z,5.28
2016-02-24T10:10:20.971Z,5.2
2016-02-24T10:11:21.005Z,5.23
2016-02-24T10:12:21.023Z,5.31
2016-02-24T10:13:21.057Z,5.29
2016-02-24T10:14:27.310Z,5.26
2016-02-24T10:15:21.047Z,5.19
2016-02-24T10:16:21.065Z,5.28
2016-02-24T10:17:21.115Z,5.28
2016-02-24T10:18:21.102Z,5.31
2016-02-24T10:19:27.480Z,5.4
2016-02-24T10:20:21.139Z,5.4
2016-02-24T10:21:21.141Z,5.47
2016-02-24T10:22:21.191Z,5.41
2016-02-24T10:23:21.194Z,5.52
2016-02-24T10:24:21.211Z,5.61
2016-02-24T10:25:21.214Z,5.81
2016-02-24T10:26:21.217Z,5.83
2016-02-24T10:27:21.266Z,6.07
2016-02-24T10:28:21.254Z,6.15
2016-02-24T10:29:21.272Z,6.38
2016-02-24T10:30:21.274Z,6.64
2016-02-24T10:31:21.309Z,6.72
2016-02-24T10:32:21.327Z,6.83
2016-02-24T10:33:27.610Z,6.89
2016-02-24T10:34:21.474Z,6.89
2016-02-24T10:35:40.585Z,7.15
2016-02-24T10:36:24.385Z,7.26
2016-02-24T10:37:21.434Z,7.23
2016-02-24T10:38:21.421Z,7.23
2016-02-24T10:39:21.440Z,7.19
2016-02-24T10:40:21.473Z,7.23
2016-02-24T10:41:21.492Z,7.22
2016-02-24T10:42:21.526Z,7.22
2016-02-24T10:43:21.559Z,7.25
2016-02-24T10:44:21.532Z,7.19
2016-02-24T10:45:21.550Z,6.97
2016-02-24T10:46:23.020Z,6.8
2016-02-24T10:47:21.617Z,6.65
2016-02-24T10:48:21.605Z,6.93
2016-02-24T10:49:21.653Z,7.07
2016-02-24T10:50:34.391Z,7.18
2016-02-24T10:51:34.409Z,7.29
2016-02-24T10:52:21.678Z,7.28
2016-02-24T10:53:21.681Z,7.28
2016-02-24T10:54:21.714Z,7.26
2016-02-24T10:55:21.716Z,7.22
2016-02-24T10:56:21.736Z,7.23
2016-02-24T10:57:34.488Z,7.25
2016-02-24T10:58:21.787Z,7.36
2016-02-24T10:59:40.994Z,7.32
2016-02-24T11:00:21.840Z,7.56
2016-02-24T11:01:47.624Z,7.41
2016-02-24T11:02:21.877Z,7.4
2016-02-24T11:05:02.726Z,7.5
2016-02-24T11:05:37.072Z,7.5
2016-02-24T11:06:37.106Z,7.53
2016-02-24T11:07:37.093Z,7.46
2016-02-24T11:08:37.220Z,7.46
2016-02-24T11:09:37.129Z,7.51
2016-02-24T11:10:37.226Z,7.55
2016-02-24T11:11:49.901Z,7.39
2016-02-24T11:12:37.201Z,7.31
2016-02-24T11:13:37.204Z,7.32
2016-02-24T11:14:37.237Z,7.51
2016-02-24T11:15:43.490Z,7.69
2016-02-24T11:16:37.274Z,7.69
2016-02-24T11:17:37.433Z,7.81
2016-02-24T11:18:37.310Z,7.77
2016-02-24T11:19:37.392Z,7.74
2016-02-24T11:20:37.331Z,7.69
2016-02-24T11:21:37.396Z,7.67
2016-02-24T11:22:37.353Z,7.67
2016-02-24T11:23:37.386Z,7.69
2016-02-24T11:24:37.420Z,7.44
2016-02-24T11:25:37.422Z,7.32
2016-02-24T11:26:50.175Z,7.36
2016-02-24T11:27:43.725Z,7.43
2016-02-24T11:28:37.478Z,7.56
2016-02-24T11:29:37.511Z,7.69
2016-02-24T11:30:37.513Z,7.84
2016-02-24T11:31:37.533Z,8.09
2016-02-24T11:32:50.301Z,7.84
2016-02-24T11:33:43.975Z,7.67
2016-02-24T11:34:56.807Z,7.32
2016-02-24T11:35:37.637Z,7.21
2016-02-24T11:36:37.655Z,7.01
2016-02-24T11:37:50.393Z,6.89
2016-02-24T11:38:45.364Z,6.64
2016-02-24T11:39:37.695Z,6.65
2016-02-24T11:41:03.385Z,6.43
2016-02-24T11:41:37.731Z,6.36
2016-02-24T11:43:40.362Z,6.07
2016-02-24T11:44:12.114Z,6.07
2016-02-24T11:44:52.926Z,5.87
2016-02-24T11:45:52.961Z,5.79
2016-02-24T11:46:52.979Z,5.73
2016-02-24T11:48:05.731Z,5.79
2016-02-24T11:48:53.032Z,5.72
2016-02-24T11:50:12.427Z,5.98
2016-02-24T11:50:56.286Z,6.07
2016-02-24T11:52:15.527Z,6.12
2016-02-24T11:53:27.639Z,6.26
2016-02-24T11:54:24.266Z,6.36
2016-02-24T11:55:30.738Z,6.6
2016-02-24T11:56:46.552Z,6.96
2016-02-24T11:57:59.634Z,7
2016-02-24T11:58:56.230Z,7.33
2016-02-24T12:00:09.188Z,7.55
2016-02-24T12:01:18.738Z,7.55
2016-02-24T12:03:58.775Z,7.83
2016-02-24T12:04:33.777Z,7.87
2016-02-24T12:05:27.501Z,8.03
2016-02-24T12:06:40.253Z,8.05
2016-02-24T12:07:27.537Z,8.05
2016-02-24T12:08:53.228Z,8.11
2016-02-24T12:09:31.293Z,8.16
2016-02-24T12:11:28.314Z,8.09
2016-02-24T12:11:40.876Z,8.03
2016-02-24T12:13:37.866Z,8.03
2016-02-24T12:13:50.428Z,8.02
2016-02-24T12:15:47.434Z,7.74
2016-02-24T12:16:00.059Z,7.78
2016-02-24T12:17:00.030Z,7.56
2016-02-24T12:18:00.049Z,7.25
2016-02-24T12:19:12.820Z,7.05
2016-02-24T12:20:00.070Z,7.04
2016-02-24T12:21:19.310Z,6.85
2016-02-24T12:22:00.732Z,6.72
2016-02-24T12:23:57.158Z,6.19
2016-02-24T12:24:35.568Z,6.12
2016-02-24T12:27:00.307Z,5.94
2016-02-24T12:27:34.669Z,5.94
2016-02-24T12:29:32.268Z,5.83
2016-02-24T12:29:45.034Z,5.81
2016-02-24T12:30:44.990Z,5.92
2016-02-24T12:31:54.571Z,5.97
2016-02-24T12:32:54.573Z,5.92
2016-02-24T12:34:07.359Z,5.92
2016-02-24T12:34:54.656Z,5.99
2016-02-24T12:36:20.318Z,6.09
2016-02-24T12:36:54.647Z,6.17
2016-02-24T12:38:27.386Z,6.34
2016-02-24T12:38:59.152Z,6.46
2016-02-24T12:40:30.470Z,6.64
2016-02-24T12:41:05.454Z,6.7
2016-02-24T12:43:40.119Z,6.97
2016-02-24T12:44:14.419Z,7.22
2016-02-24T12:46:12.922Z,7.44
2016-02-24T12:46:25.531Z,7.7
2016-02-24T12:47:56.836Z,7.81
2016-02-24T12:48:31.828Z,7.98
2016-02-24T12:50:00.149Z,8.17
2016-02-24T12:50:41.532Z,8.23
2016-02-24T12:51:28.822Z,8.34
2016-02-24T12:52:41.555Z,8.01
2016-02-24T12:53:28.867Z,7.55
2016-02-24T12:54:48.068Z,7.05
2016-02-24T12:55:51.193Z,6.78
2016-02-24T12:57:38.318Z,5.97
2016-02-24T12:58:13.522Z,6.01
2016-02-24T12:59:23.181Z,5.65
2016-02-24T13:00:32.854Z,5.43
2016-02-24T13:01:35.309Z,5.36
2016-02-24T13:02:44.890Z,5.08
2016-02-24T13:03:54.438Z,5.1
2016-02-24T13:05:03.989Z,4.74
2016-02-24T13:06:13.556Z,4.75
2016-02-24T13:07:23.105Z,4.9
2016-02-24T13:08:06.995Z,4.68
2016-02-24T13:11:19.160Z,4.67
2016-02-24T13:12:19.195Z,4.31
2016-02-24T13:13:50.510Z,4.39
2016-02-24T13:15:34.422Z,4.32
2016-02-24T13:16:34.597Z,4.31
2016-02-24T13:17:34.459Z,4.38
2016-02-24T13:18:47.212Z,4.42
2016-02-24T13:19:34.495Z,4.32
2016-02-24T13:20:53.701Z,4.28
2016-02-24T13:21:34.735Z,4.39
2016-02-24T13:22:53.753Z,4.28
2016-02-24T13:23:35.006Z,4.21
2016-02-24T13:25:00.039Z,4.27
2016-02-24T13:25:40.871Z,4.31
2016-02-24T13:27:13.016Z,4.46
2016-02-24T13:27:51.016Z,4.39
2016-02-24T13:29:03.832Z,4.63
2016-02-24T13:30:03.788Z,4.87
2016-02-24T13:31:10.294Z,4.98
2016-02-24T13:31:51.090Z,5.01
2016-02-24T13:33:16.970Z,4.9
2016-02-24T13:33:51.142Z,4.86
2016-02-24T13:36:00.725Z,4.6
2016-02-24T13:37:00.807Z,4.52
2016-02-24T13:38:13.500Z,4.32
2016-02-24T13:39:00.781Z,4.43
2016-02-24T13:40:19.988Z,4.38
2016-02-24T13:41:29.524Z,4.28
2016-02-24T13:42:03.899Z,4.16
2016-02-24T13:44:19.078Z,4.14
2016-02-24T13:45:19.175Z,4.24
2016-02-24T13:46:19.115Z,4.3
2016-02-24T13:47:31.882Z,4.3
2016-02-24T13:48:50.448Z,4.39
2016-02-24T13:49:40.607Z,4.52
2016-02-24T13:50:53.578Z,4.52
2016-02-24T13:51:47.113Z,4.57
2016-02-24T13:53:00.084Z,4.5
2016-02-24T13:54:31.590Z,4.58
2016-02-24T13:55:46.780Z,4.63
2016-02-24T13:56:46.829Z,4.67
2016-02-24T13:57:59.550Z,4.71
2016-02-24T13:58:47.053Z,4.71
2016-02-24T14:00:06.072Z,4.64
2016-02-24T14:00:46.886Z,4.66
2016-02-24T14:02:18.189Z,4.67
2016-02-24T14:03:02.720Z,4.61
2016-02-24T14:04:46.945Z,4.64
2016-02-24T14:05:12.266Z,4.63
2016-02-24T14:07:09.256Z,4.49
2016-02-24T14:07:23.256Z,4.42
2016-02-24T14:09:38.465Z,4.43
2016-02-24T14:10:38.592Z,4.38
2016-02-24T14:12:04.157Z,4.48
2016-02-24T14:12:38.550Z,4.52
2016-02-24T14:13:38.537Z,4.61
2016-02-24T14:14:38.979Z,4.61
2016-02-24T14:15:38.559Z,4.61
2016-02-24T14:16:38.577Z,4.68
2016-02-24T14:17:38.611Z,4.78
2016-02-24T14:18:38.597Z,4.76
2016-02-24T14:19:38.633Z,4.94
2016-02-24T14:20:38.635Z,4.84
2016-02-24T14:21:44.966Z,4.92
2016-02-24T14:22:45.141Z,4.89
2016-02-24T14:23:51.611Z,5